Time;durP1;ratioP1;P1;durP2;ratioP2;P2;SDS_P1;SDS_P2;PMS_P1;PMS_P2;Temp;Humidity;BMP_temperature;BMP_pressure;BME280_temperature;BME280_humidity;BME280_pressure;Samples;Min_cycle;Max_cycle;Signal;HPM_P1;HPM_P2
2021/01/10 00:02:40;;;;;;;36.43;21.10;;;0.80;99.90;;;;;;5029532;28;20499;-85
2021/01/10 00:05:11;;;;;;;26.53;18.97;;;1.00;99.90;;;;;;5030275;28;20477;-85
2021/01/10 00:07:40;;;;;;;31.63;20.10;;;0.90;99.90;;;;;;5021720;28;20497;-85
2021/01/10 00:10:12;;;;;;;27.70;19.13;;;0.70;99.90;;;;;;5010880;28;20453;-85
2021/01/10 00:12:39;;;;;;;28.10;19.33;;;0.80;99.90;;;;;;5010073;28;20484;-85
2021/01/10 00:15:07;;;;;;;28.67;19.77;;;0.70;99.90;;;;;;5011170;28;20486;-85
2021/01/10 00:17:34;;;;;;;28.77;23.45;;;0.70;99.90;;;;;;5010266;28;20438;-85
2021/01/10 00:20:04;;;;;;;30.70;21.10;;;0.80;99.90;;;;;;5011144;28;20197;-85
2021/01/10 00:22:30;;;;;;;30.97;20.13;;;1.00;99.90;;;;;;5013207;28;20480;-85
2021/01/10 00:24:57;;;;;;;27.03;19.33;;;1.20;99.90;;;;;;5014753;28;20453;-85
2021/01/10 00:27:24;;;;;;;29.57;19.53;;;1.10;99.90;;;;;;4997631;28;20493;-85
2021/01/10 00:29:54;;;;;;;28.63;20.23;;;1.20;99.90;;;;;;5013748;28;20474;-85
2021/01/10 00:32:22;;;;;;;28.40;18.30;;;1.20;99.90;;;;;;4980599;28;20473;-85
2021/01/10 00:34:49;;;;;;;29.07;19.37;;;1.00;99.90;;;;;;5014378;28;20849;-85
2021/01/10 00:37:20;;;;;;;27.70;19.50;;;1.00;99.90;;;;;;5014714;28;20462;-85
2021/01/10 00:39:48;;;;;;;25.20;17.53;;;0.80;99.90;;;;;;5013982;28;20464;-85
2021/01/10 00:42:18;;;;;;;28.97;19.00;;;0.70;99.90;;;;;;5025469;22;20501;-85
2021/01/10 00:44:46;;;;;;;22.53;17.40;;;0.80;99.90;;;;;;5014218;28;20512;-85
2021/01/10 00:47:16;;;;;;;28.23;18.47;;;0.70;99.90;;;;;;5014526;28;20505;-85
2021/01/10 00:49:46;;;;;;;27.00;17.87;;;0.70;99.90;;;;;;5014023;28;20469;-85
2021/01/10 00:52:14;;;;;;;27.73;18.53;;;0.50;99.90;;;;;;5013617;28;20477;-85
2021/01/10 00:54:44;;;;;;;26.67;19.07;;;0.50;99.90;;;;;;4997141;28;20474;-85
2021/01/10 00:57:13;;;;;;;28.33;18.63;;;0.40;99.90;;;;;;4997424;28;20542;-85
2021/01/10 00:59:40;;;;;;;24.97;17.67;;;0.50;99.90;;;;;;5013702;28;20452;-84
2021/01/10 01:02:07;;;;;;;25.93;18.27;;;0.40;99.90;;;;;;5014048;28;20498;-85
2021/01/10 01:04:35;;;;;;;26.43;18.87;;;0.30;99.90;;;;;;5013311;28;20450;-85
2021/01/10 01:07:02;;;;;;;26.93;18.07;;;0.20;99.90;;;;;;4996460;28;20909;-86
2021/01/10 01:09:34;;;;;;;26.57;18.83;;;0.30;99.90;;;;;;5013564;28;20457;-85
2021/01/10 01:12:10;;;;;;;26.33;18.10;;;0.40;99.90;;;;;;5013663;28;20462;-85
2021/01/10 01:14:37;;;;;;;26.83;18.10;;;0.40;99.90;;;;;;5013131;28;20489;-85
2021/01/10 01:17:06;;;;;;;29.47;19.20;;;0.40;99.90;;;;;;5012896;28;20481;-85
2021/01/10 01:19:34;;;;;;;28.83;19.07;;;0.50;99.90;;;;;;5013577;28;20529;-85
2021/01/10 01:22:02;;;;;;;32.50;26.93;;;0.60;99.90;;;;;;4994567;28;20498;-84
2021/01/10 01:24:29;;;;;;;30.70;21.87;;;0.70;99.90;;;;;;5012778;28;20208;-85
2021/01/10 01:26:57;;;;;;;26.23;19.63;;;0.80;99.90;;;;;;5012342;28;20478;-85
2021/01/10 01:29:24;;;;;;;25.53;17.63;;;0.80;99.90;;;;;;5013218;28;20454;-85
2021/01/10 01:31:54;;;;;;;27.90;19.60;;;0.90;99.90;;;;;;5013672;28;20439;-85
2021/01/10 01:34:23;;;;;;;29.93;19.47;;;1.00;99.90;;;;;;5012525;28;20478;-85
2021/01/10 01:36:52;;;;;;;27.60;19.73;;;1.00;99.90;;;;;;5013295;28;20423;-85
2021/01/10 01:39:20;;;;;;;29.47;20.17;;;0.80;99.90;;;;;;5013164;28;20541;-84
2021/01/10 01:41:48;;;;;;;24.77;19.63;;;0.90;99.90;;;;;;5013451;28;20750;-85
2021/01/10 01:44:16;;;;;;;31.33;20.33;;;0.90;99.90;;;;;;5012287;28;20451;-85
2021/01/10 01:46:44;;;;;;;29.60;20.17;;;1.10;99.90;;;;;;5012900;28;20457;-85
2021/01/10 01:49:13;;;;;;;31.43;19.77;;;1.20;99.90;;;;;;4995493;28;20955;-85
2021/01/10 01:51:41;;;;;;;26.03;18.77;;;1.10;99.90;;;;;;5012172;28;20496;-85
2021/01/10 01:54:08;;;;;;;31.57;21.07;;;1.00;99.90;;;;;;5012761;28;20457;-85
2021/01/10 01:56:37;;;;;;;35.97;21.43;;;0.90;99.90;;;;;;5012939;28;20454;-86
2021/01/10 01:59:10;;;;;;;33.67;20.50;;;0.80;99.90;;;;;;4995232;28;20477;-85
2021/01/10 02:01:43;;;;;;;30.70;19.63;;;0.80;99.90;;;;;;4995376;28;20509;-85
2021/01/10 02:04:17;;;;;;;32.93;20.87;;;0.80;99.90;;;;;;5011874;28;20929;-85
2021/01/10 02:06:52;;;;;;;32.63;20.30;;;0.80;99.90;;;;;;5011980;28;20450;-85
2021/01/10 02:09:22;;;;;;;34.33;20.87;;;0.80;99.90;;;;;;5011968;28;20879;-85
2021/01/10 02:11:54;;;;;;;36.20;20.93;;;0.80;99.90;;;;;;5012043;28;20933;-85
2021/01/10 02:14:27;;;;;;;39.87;21.80;;;0.90;99.90;;;;;;4995092;28;20545;-85
2021/01/10 02:16:58;;;;;;;35.57;20.77;;;0.90;99.90;;;;;;5012937;28;20509;-85
2021/01/10 02:19:52;;;;;;;35.33;22.13;;;0.90;99.90;;;;;;5012820;28;20500;-85
2021/01/10 02:22:25;;;;;;;35.30;20.90;;;0.90;99.90;;;;;;4995034;28;20461;-85
2021/01/10 02:24:54;;;;;;;36.67;22.20;;;0.70;99.90;;;;;;5012166;28;20461;-85
2021/01/10 02:27:26;;;;;;;39.80;22.23;;;0.70;99.90;;;;;;5007194;23;20985;-85
2021/01/10 02:29:56;;;;;;;38.37;21.70;;;0.70;99.90;;;;;;5017809;28;20449;-85
2021/01/10 02:32:27;;;;;;;39.77;22.57;;;0.80;99.90;;;;;;5001249;28;20447;-85
2021/01/10 02:34:56;;;;;;;34.83;19.93;;;0.70;99.90;;;;;;5017017;28;20478;-85
2021/01/10 02:38:13;;;;;;;42.53;23.87;;;0.80;99.90;;;;;;5017380;28;20482;-85
2021/01/10 02:41:16;;;;;;;34.93;19.93;;;0.90;99.90;;;;;;5017360;28;20427;-85
2021/01/10 02:44:19;;;;;;;32.13;19.27;;;1.00;99.90;;;;;;5017639;28;20458;-85
2021/01/10 02:46:55;;;;;;;36.60;21.43;;;1.00;99.90;;;;;;5017295;28;20411;-84
2021/01/10 02:49:35;;;;;;;35.87;22.43;;;1.10;99.90;;;;;;5017319;28;20438;-85
2021/01/10 02:52:03;;;;;;;34.23;20.13;;;1.10;99.90;;;;;;5013941;28;20430;-85
2021/01/10 02:54:33;;;;;;;37.97;21.30;;;1.00;99.90;;;;;;5012434;28;20497;-85
2021/01/10 02:57:17;;;;;;;31.08;19.92;;;1.00;99.90;;;;;;5022910;22;20449;-84
2021/01/10 02:59:47;;;;;;;30.40;18.67;;;1.00;99.90;;;;;;5013897;28;20852;-85
2021/01/10 03:02:15;;;;;;;30.60;19.97;;;1.00;99.90;;;;;;5011703;28;20466;-85
2021/01/10 03:04:43;;;;;;;31.57;20.43;;;0.80;99.90;;;;;;5010853;28;20472;-85
2021/01/10 03:07:12;;;;;;;29.77;19.27;;;0.70;99.90;;;;;;4994254;28;20563;-85
2021/01/10 03:09:40;;;;;;;28.17;18.53;;;0.90;99.90;;;;;;5011430;28;20450;-85
2021/01/10 03:12:19;;;;;;;29.50;18.33;;;1.20;99.90;;;;;;5010875;28;20516;-85
2021/01/10 03:14:47;;;;;;;29.33;18.93;;;0.90;99.90;;;;;;4993412;28;20482;-85
2021/01/10 03:17:22;;;;;;;30.33;18.37;;;1.00;99.90;;;;;;5009838;28;20482;-85
2021/01/10 03:19:49;;;;;;;27.10;18.17;;;0.80;99.90;;;;;;4993496;28;20449;-85
2021/01/10 03:22:19;;;;;;;27.53;17.47;;;0.90;99.90;;;;;;5011696;28;20446;-86
2021/01/10 03:24:47;;;;;;;26.73;18.77;;;1.00;99.90;;;;;;5010451;28;20458;-85
2021/01/10 03:27:15;;;;;;;24.63;17.00;;;1.00;99.90;;;;;;4993219;28;20467;-85
2021/01/10 03:29:48;;;;;;;27.37;17.73;;;1.00;99.90;;;;;;5011012;28;20465;-85
2021/01/10 03:32:16;;;;;;;27.77;17.47;;;1.10;99.90;;;;;;5010904;28;20446;-85
2021/01/10 03:34:47;;;;;;;25.17;17.43;;;1.00;99.90;;;;;;4994418;28;20489;-85
2021/01/10 03:37:17;;;;;;;25.67;18.53;;;0.90;99.90;;;;;;5011742;28;20498;-85
2021/01/10 03:39:45;;;;;;;26.40;18.30;;;1.00;99.90;;;;;;5011617;28;20466;-85
2021/01/10 03:42:21;;;;;;;25.63;18.07;;;1.10;99.90;;;;;;5011452;28;20438;-85
2021/01/10 03:44:49;;;;;;;26.80;18.20;;;1.30;99.90;;;;;;5012020;28;20433;-85
2021/01/10 03:47:18;;;;;;;25.37;18.57;;;1.30;99.90;;;;;;5013131;28;20486;-85
2021/01/10 03:49:47;;;;;;;28.00;19.00;;;1.60;99.90;;;;;;5012443;28;20473;-85
2021/01/10 03:52:14;;;;;;;32.77;19.00;;;1.60;99.90;;;;;;5011458;28;20446;-85
2021/01/10 03:54:44;;;;;;;28.10;20.07;;;1.40;99.90;;;;;;4993610;28;20478;-85
2021/01/10 03:57:14;;;;;;;27.63;19.33;;;1.30;99.90;;;;;;5009343;28;20514;-85
2021/01/10 03:59:48;;;;;;;26.47;18.87;;;1.30;99.90;;;;;;5018872;23;20529;-85
2021/01/10 04:02:16;;;;;;;25.77;18.20;;;1.10;99.90;;;;;;5011404;28;20449;-85
2021/01/10 04:04:44;;;;;;;27.07;18.50;;;1.10;99.90;;;;;;5010007;28;20918;-85
2021/01/10 04:07:12;;;;;;;27.57;17.70;;;1.00;99.90;;;;;;4992553;28;20604;-85
2021/01/10 04:09:45;;;;;;;24.30;17.03;;;1.00;99.90;;;;;;5010098;28;20457;-85
2021/01/10 04:12:13;;;;;;;25.47;18.57;;;1.10;99.90;;;;;;5014426;28;20553;-85
2021/01/10 04:14:40;;;;;;;27.00;17.60;;;1.00;99.90;;;;;;5012197;28;20485;-85
2021/01/10 04:17:41;;;;;;;25.47;18.07;;;1.10;99.90;;;;;;5010588;28;20458;-85
2021/01/10 04:20:16;;;;;;;23.60;16.30;;;1.20;99.90;;;;;;5011184;28;20445;-84
2021/01/10 04:22:44;;;;;;;28.97;17.23;;;1.30;99.90;;;;;;4993158;28;20434;-85
2021/01/10 04:27:58;;;;;;;26.40;17.50;;;1.40;99.90;;;;;;5010338;28;20490;-85
2021/01/10 04:30:25;;;;;;;23.20;16.30;;;1.20;99.90;;;;;;5011080;28;20514;-85
2021/01/10 04:32:54;;;;;;;23.70;16.67;;;1.20;99.90;;;;;;5010859;28;20449;-85
2021/01/10 04:35:26;;;;;;;25.83;17.57;;;1.10;99.90;;;;;;5010888;28;20453;-85
2021/01/10 04:37:54;;;;;;;24.83;17.77;;;1.20;99.90;;;;;;5009877;28;20493;-85
2021/01/10 04:40:24;;;;;;;27.20;17.43;;;1.20;99.90;;;;;;5009838;28;20454;-85
2021/01/10 04:42:51;;;;;;;25.50;18.50;;;1.20;99.90;;;;;;5009464;28;20442;-85
2021/01/10 04:45:19;;;;;;;25.30;16.77;;;1.00;99.90;;;;;;5009672;28;20505;-85
2021/01/10 04:47:47;;;;;;;31.27;19.27;;;0.90;99.90;;;;;;5009936;28;20466;-84
2021/01/10 04:50:17;;;;;;;23.67;17.17;;;0.90;99.90;;;;;;5010598;28;20447;-85
2021/01/10 04:52:46;;;;;;;26.10;16.43;;;1.00;99.90;;;;;;5009881;28;20458;-85
2021/01/10 04:55:20;;;;;;;27.33;18.53;;;1.00;99.90;;;;;;5009850;28;20501;-85
2021/01/10 04:58:04;;;;;;;29.53;18.00;;;1.00;99.90;;;;;;5009927;28;20466;-86
2021/01/10 05:00:35;;;;;;;27.40;17.47;;;0.80;99.90;;;;;;5009560;28;20504;-85
2021/01/10 05:03:10;;;;;;;23.80;15.97;;;0.80;99.90;;;;;;5009552;28;20550;-85
2021/01/10 05:05:38;;;;;;;26.97;18.07;;;0.60;99.90;;;;;;5009603;28;20462;-85
2021/01/10 05:08:13;;;;;;;23.53;16.47;;;0.70;99.90;;;;;;5010250;28;20470;-85
2021/01/10 05:10:43;;;;;;;26.77;17.93;;;0.60;99.90;;;;;;5013671;28;20449;-85
2021/01/10 05:13:15;;;;;;;32.00;19.23;;;0.60;99.90;;;;;;5013333;28;20457;-85
2021/01/10 05:15:54;;;;;;;27.10;18.07;;;0.60;99.90;;;;;;5013758;28;20480;-84
2021/01/10 05:18:21;;;;;;;29.23;18.97;;;0.60;99.90;;;;;;5013384;28;20470;-85
2021/01/10 05:20:54;;;;;;;26.30;18.33;;;0.60;99.90;;;;;;5013419;28;20596;-85
2021/01/10 05:23:32;;;;;;;27.33;18.33;;;0.70;99.90;;;;;;5013629;28;20453;-85
2021/01/10 05:26:08;;;;;;;28.83;19.60;;;0.70;99.90;;;;;;5014353;28;20450;-85
2021/01/10 05:28:38;;;;;;;28.67;18.60;;;0.90;99.90;;;;;;4997806;28;20485;-85
2021/01/10 05:31:12;;;;;;;25.33;17.63;;;1.00;99.90;;;;;;5013645;28;20438;-85
2021/01/10 05:33:53;;;;;;;29.17;18.70;;;0.90;99.90;;;;;;5013726;28;20478;-85
2021/01/10 05:36:29;;;;;;;25.20;18.27;;;0.90;99.90;;;;;;5013261;28;20454;-85
2021/01/10 05:38:57;;;;;;;28.03;18.63;;;1.00;99.90;;;;;;5013319;28;20461;-84
2021/01/10 05:41:27;;;;;;;27.67;18.17;;;1.10;99.90;;;;;;5013213;28;20457;-85
2021/01/10 05:43:59;;;;;;;29.23;18.80;;;1.00;99.90;;;;;;5013331;28;20431;-85
2021/01/10 05:46:32;;;;;;;25.93;19.07;;;1.00;99.90;;;;;;5013656;28;20439;-85
2021/01/10 05:49:03;;;;;;;28.43;19.33;;;0.90;99.90;;;;;;5014265;28;20423;-85
2021/01/10 05:51:35;;;;;;;26.60;18.90;;;0.90;99.90;;;;;;5014386;28;20442;-85
2021/01/10 05:54:04;;;;;;;27.87;18.77;;;0.90;99.90;;;;;;5012748;28;20474;-85
2021/01/10 05:56:31;;;;;;;26.63;17.07;;;0.90;99.90;;;;;;5012315;28;20455;-85
2021/01/10 06:04:46;;;;;;;25.00;17.00;;;1.00;99.90;;;;;;4999083;28;20436;-86
2021/01/10 06:10:51;;;;;;;28.88;20.17;;;1.10;99.90;;;;;;5219387;22;20454;-86
2021/01/10 06:13:53;;;;;;;23.13;17.67;;;1.10;99.90;;;;;;5018829;28;20192;-86
2021/01/10 06:16:24;;;;;;;28.43;18.90;;;1.00;99.90;;;;;;5032212;23;23327;-85
2021/01/10 06:24:26;;;;;;;27.03;18.37;;;1.10;99.90;;;;;;5012017;28;20456;-84
2021/01/10 06:27:06;;;;;;;25.67;17.80;;;1.00;99.90;;;;;;4996346;28;20469;-85
2021/01/10 06:29:41;;;;;;;26.60;17.17;;;1.00;99.90;;;;;;5012670;28;20450;-85
2021/01/10 06:32:13;;;;;;;25.87;18.43;;;1.00;99.90;;;;;;4996225;28;20450;-85
2021/01/10 06:34:43;;;;;;;28.73;18.13;;;1.10;99.90;;;;;;4996628;28;20488;-85
2021/01/10 06:37:26;;;;;;;27.20;19.30;;;1.10;99.90;;;;;;4996230;28;20541;-85
2021/01/10 06:39:59;;;;;;;29.47;19.70;;;1.10;99.90;;;;;;5013502;28;20450;-85
2021/01/10 06:42:46;;;;;;;25.90;18.40;;;1.10;99.90;;;;;;5003454;28;20426;-85
2021/01/10 06:45:16;;;;;;;30.60;19.23;;;1.00;99.90;;;;;;5019149;28;20497;-85
2021/01/10 06:47:43;;;;;;;30.67;18.27;;;1.00;99.90;;;;;;5019056;28;20474;-85
2021/01/10 06:50:12;;;;;;;29.70;18.60;;;1.00;99.90;;;;;;5018496;28;20459;-85
2021/01/10 06:52:42;;;;;;;29.47;19.63;;;1.00;99.90;;;;;;5002819;28;20517;-85
2021/01/10 06:55:13;;;;;;;26.30;18.30;;;0.80;99.90;;;;;;5018457;28;20486;-85
2021/01/10 06:57:45;;;;;;;29.10;18.43;;;0.70;99.90;;;;;;5018889;28;20486;-85
2021/01/10 07:00:20;;;;;;;31.67;20.10;;;0.70;99.90;;;;;;5019201;28;20454;-85
2021/01/10 07:06:12;;;;;;;31.40;19.67;;;0.70;99.90;;;;;;5043831;23;20491;-85
2021/01/10 07:08:53;;;;;;;29.40;18.73;;;0.60;99.90;;;;;;5017023;28;20454;-85
2021/01/10 07:11:50;;;;;;;30.93;20.23;;;0.70;99.90;;;;;;5016983;28;20446;-85
2021/01/10 07:14:44;;;;;;;26.20;18.53;;;0.70;99.90;;;;;;5018248;28;20544;-86
2021/01/10 07:17:24;;;;;;;29.20;18.87;;;0.50;99.90;;;;;;5018740;28;20458;-86
2021/01/10 07:19:55;;;;;;;29.77;18.87;;;0.50;99.90;;;;;;5018828;28;20465;-85
2021/01/10 07:22:39;;;;;;;29.57;19.80;;;0.40;99.90;;;;;;5018793;28;20538;-86
2021/01/10 07:25:45;;;;;;;28.97;19.10;;;0.30;99.90;;;;;;5004318;28;20445;-85
2021/01/10 07:31:31;;;;;;;26.10;18.27;;;0.30;99.90;;;;;;5017595;28;20511;-85
2021/01/10 07:34:27;;;;;;;27.50;18.20;;;0.20;99.90;;;;;;5017807;28;20485;-85
2021/01/10 07:37:01;;;;;;;29.73;18.97;;;0.20;99.90;;;;;;5018567;28;20497;-86
2021/01/10 07:39:53;;;;;;;29.77;18.83;;;0.20;99.90;;;;;;5015252;28;20452;-85
2021/01/10 07:45:56;;;;;;;27.80;17.57;;;0.10;99.90;;;;;;4939634;29;20458;-83
2021/01/10 07:48:37;;;;;;;29.90;18.53;;;0.10;99.90;;;;;;4940823;29;20454;-86
2021/01/10 07:51:54;;;;;;;30.27;19.23;;;0.00;99.90;;;;;;5093331;23;20496;-86
2021/01/10 07:55:17;;;;;;;25.70;17.43;;;0.00;99.90;;;;;;5042191;23;20485;-84
2021/01/10 07:57:58;;;;;;;27.33;18.37;;;0.00;99.90;;;;;;5017406;28;20469;-85
2021/01/10 08:00:31;;;;;;;30.97;19.00;;;0.00;99.90;;;;;;5001506;28;20435;-83
2021/01/10 08:03:49;;;;;;;31.50;18.90;;;-0.10;99.90;;;;;;5035859;23;20489;-85
2021/01/10 08:19:03;;;;;;;41.38;31.75;;;0.00;99.90;;;;;;5068879;23;20557;-85
2021/01/10 08:21:35;;;;;;;39.57;24.07;;;0.00;99.90;;;;;;5012056;28;20208;-85
2021/01/10 08:24:22;;;;;;;31.43;20.37;;;0.00;99.90;;;;;;5013403;28;20438;-85
2021/01/10 08:26:56;;;;;;;36.03;22.30;;;0.10;99.90;;;;;;5273821;22;20481;-86
2021/01/10 08:37:50;;;;;;;32.30;20.63;;;0.10;99.90;;;;;;5014883;28;20476;-87
2021/01/10 08:40:21;;;;;;;32.97;22.27;;;0.20;99.90;;;;;;5016093;28;20430;-86
2021/01/10 08:43:01;;;;;;;34.50;21.67;;;0.30;99.90;;;;;;5017147;28;20446;-86
2021/01/10 08:45:44;;;;;;;37.73;20.73;;;0.20;99.90;;;;;;5002328;28;20438;-86
2021/01/10 08:48:25;;;;;;;37.43;22.93;;;0.20;99.90;;;;;;5019421;28;20465;-86
2021/01/10 08:51:01;;;;;;;48.42;35.63;;;0.20;99.90;;;;;;5018963;28;20461;-86
2021/01/10 08:53:44;;;;;;;41.97;25.50;;;0.40;99.90;;;;;;5019417;28;20222;-86
2021/01/10 08:56:26;;;;;;;39.93;24.13;;;0.40;99.90;;;;;;5019940;28;20477;-85
2021/01/10 08:59:06;;;;;;;36.63;22.97;;;0.40;99.90;;;;;;5063232;22;20482;-87
2021/01/10 09:04:21;;;;;;;37.73;22.07;;;0.40;99.90;;;;;;5019917;28;20457;-86
2021/01/10 09:07:00;;;;;;;34.70;22.40;;;0.40;99.90;;;;;;5019463;28;20427;-86
2021/01/10 09:12:53;;;;;;;35.67;22.03;;;0.40;99.90;;;;;;5016939;28;20465;-86
2021/01/10 09:18:12;;;;;;;36.80;22.43;;;0.50;99.90;;;;;;5024601;28;20557;-85
2021/01/10 09:35:05;;;;;;;38.17;23.77;;;0.60;99.90;;;;;;5158823;22;20504;-85
2021/01/10 09:45:12;;;;;;;37.27;21.67;;;0.60;99.90;;;;;;4961838;29;20424;-86
2021/01/10 10:00:58;;;;;;;34.07;21.90;;;1.00;99.90;;;;;;5252043;22;20500;-86
2021/01/10 10:03:59;;;;;;;39.40;25.07;;;0.90;99.90;;;;;;5018223;28;20450;-86
2021/01/10 10:16:37;;;;;;;33.10;22.20;;;0.80;99.90;;;;;;5015125;28;20474;-86
2021/01/10 10:22:45;;;;;;;32.97;22.67;;;0.80;99.90;;;;;;5192141;22;20478;-86
2021/01/10 10:29:43;;;;;;;39.43;22.23;;;1.00;99.90;;;;;;5007367;23;20499;-85
2021/01/10 11:01:10;;;;;;;40.67;23.63;;;1.10;99.90;;;;;;5058054;22;20494;-84
2021/01/10 11:04:29;;;;;;;33.83;21.67;;;1.00;99.90;;;;;;5010014;23;20498;-83
2021/01/10 11:10:54;;;;;;;30.83;20.27;;;1.20;99.90;;;;;;5015534;28;20437;-85
2021/01/10 11:13:50;;;;;;;29.30;19.90;;;1.20;99.90;;;;;;5017011;28;20482;-86
2021/01/10 11:16:38;;;;;;;32.37;21.07;;;1.30;99.90;;;;;;5024391;23;20508;-85
2021/01/10 11:19:26;;;;;;;29.07;20.23;;;1.20;99.90;;;;;;5031967;22;20517;-85
2021/01/10 11:28:19;;;;;;;28.27;20.20;;;1.40;99.90;;;;;;5028472;23;20458;-86
2021/01/10 11:38:38;;;;;;;25.77;18.37;;;1.50;99.90;;;;;;5049639;22;20492;-85
2021/01/10 11:41:28;;;;;;;29.07;19.20;;;1.60;99.90;;;;;;5312705;23;20478;-85
2021/01/10 11:44:13;;;;;;;29.47;19.87;;;1.60;99.90;;;;;;5050028;23;20484;-85
2021/01/10 11:53:03;;;;;;;33.37;20.17;;;1.70;99.90;;;;;;5018240;28;20437;-85
2021/01/10 12:01:55;;;;;;;26.03;18.80;;;1.80;99.90;;;;;;5016070;28;20419;-85
2021/01/10 12:04:25;;;;;;;32.57;18.97;;;1.60;99.90;;;;;;5015999;28;20450;-84
2021/01/10 12:08:03;;;;;;;32.97;19.90;;;1.60;99.90;;;;;;5005987;28;20484;-86
2021/01/10 12:26:56;;;;;;;31.40;20.90;;;2.10;99.90;;;;;;5025912;22;20490;-86
2021/01/10 12:32:37;;;;;;;36.63;22.37;;;2.10;99.90;;;;;;4995931;28;20442;-85
2021/01/10 12:35:15;;;;;;;36.83;23.38;;;2.10;99.90;;;;;;4995186;28;20847;-85
2021/01/10 12:37:43;;;;;;;34.90;21.10;;;2.10;99.90;;;;;;4995654;28;20315;-85
2021/01/10 12:40:15;;;;;;;36.77;21.63;;;2.10;99.90;;;;;;5000587;28;20438;-86
2021/01/10 12:42:56;;;;;;;37.23;21.60;;;2.20;99.90;;;;;;5002307;28;20446;-85
2021/01/10 12:45:24;;;;;;;30.37;21.50;;;2.30;99.90;;;;;;5060953;23;20493;-85
2021/01/10 12:47:53;;;;;;;35.53;20.50;;;2.40;99.90;;;;;;5004508;28;20461;-85
2021/01/10 12:50:23;;;;;;;33.87;21.23;;;2.40;99.90;;;;;;5017091;28;20445;-85
2021/01/10 12:52:55;;;;;;;33.23;21.27;;;2.30;99.90;;;;;;5018615;28;20799;-85
2021/01/10 12:55:31;;;;;;;32.93;22.60;;;2.30;99.90;;;;;;5019897;28;20472;-84
2021/01/10 12:58:07;;;;;;;47.33;23.17;;;2.30;99.90;;;;;;5037011;22;20489;-84
2021/01/10 13:00:39;;;;;;;39.87;23.23;;;2.20;99.90;;;;;;5004858;28;20476;-83
2021/01/10 13:03:13;;;;;;;34.63;22.10;;;2.30;99.90;;;;;;5021681;28;20546;-84
2021/01/10 13:05:42;;;;;;;38.85;24.50;;;2.40;99.90;;;;;;5005188;28;20458;-85
2021/01/10 13:08:10;;;;;;;37.87;23.93;;;2.50;99.90;;;;;;5005171;28;20215;-86
2021/01/10 13:10:46;;;;;;;45.50;24.33;;;2.50;99.90;;;;;;5004954;28;20450;-85
2021/01/10 13:13:27;;;;;;;37.27;23.33;;;2.50;99.90;;;;;;5046123;23;20478;-86
2021/01/10 13:15:56;;;;;;;37.20;24.37;;;2.70;99.90;;;;;;5021363;28;20480;-83
2021/01/10 13:21:39;;;;;;;35.27;23.97;;;2.30;99.90;;;;;;5019621;28;20544;-86
2021/01/10 13:27:20;;;;;;;32.27;22.57;;;2.20;99.90;;;;;;5008984;28;20470;-83
2021/01/10 13:32:35;;;;;;;35.10;21.00;;;1.90;99.90;;;;;;5019982;28;20449;-85
2021/01/10 13:35:09;;;;;;;34.80;21.63;;;2.00;99.90;;;;;;5071664;23;20462;-85
2021/01/10 13:41:01;;;;;;;40.43;24.83;;;2.20;99.90;;;;;;5021295;28;20243;-88
2021/01/10 13:43:35;;;;;;;38.83;22.40;;;2.20;99.90;;;;;;5016370;28;20463;-85
2021/01/10 13:55:32;;;;;;;32.83;21.73;;;2.60;99.90;;;;;;2014866;22;20757;31
2021/01/10 14:05:17;;;;;;;40.97;21.50;;;2.70;99.90;;;;;;5137186;22;20484;-85
2021/01/10 14:15:02;;;;;;;35.83;22.67;;;2.70;99.90;;;;;;5087392;23;20240;-85
2021/01/10 14:54:12;;;;;;;38.70;22.70;;;1.80;99.90;;;;;;5418166;22;20441;-85
2021/01/10 15:15:01;;;;;;;46.53;25.80;;;1.80;99.90;;;;;;5027394;23;20493;-87
2021/01/10 15:32:16;;;;;;;77.27;27.80;;;1.70;99.90;;;;;;4999464;28;20447;-87
2021/01/10 15:41:36;;;;;;;73.40;28.63;;;1.40;99.90;;;;;;4959636;28;20447;-87
2021/01/10 16:03:45;;;;;;;79.40;31.60;;;1.40;99.90;;;;;;5036889;26;20477;-85
2021/01/10 16:09:37;;;;;;;93.27;31.30;;;1.50;99.90;;;;;;5137998;23;20473;-85
2021/01/10 16:21:36;;;;;;;85.43;28.90;;;1.40;99.90;;;;;;5024868;23;20461;-85
2021/01/10 16:24:28;;;;;;;74.77;29.33;;;1.40;99.90;;;;;;5018002;28;20426;-86
2021/01/10 16:36:41;;;;;;;96.60;31.23;;;1.30;99.90;;;;;;5132071;23;20548;-85
2021/01/10 16:43:09;;;;;;;89.20;31.43;;;1.40;99.90;;;;;;5144548;22;20475;-85
2021/01/10 16:52:35;;;;;;;83.50;29.73;;;1.20;99.90;;;;;;5426428;22;20481;-85
2021/01/10 16:55:37;;;;;;;77.27;30.57;;;1.20;99.90;;;;;;5018599;28;20456;-87
2021/01/10 17:02:09;;;;;;;79.00;33.47;;;1.30;99.90;;;;;;5024431;23;20494;-86
2021/01/10 17:05:12;;;;;;;79.53;33.40;;;1.30;99.90;;;;;;5020226;28;20441;-86
2021/01/10 17:08:24;;;;;;;71.83;30.27;;;1.20;99.90;;;;;;5043241;22;20485;-86
2021/01/10 17:20:33;;;;;;;70.90;29.87;;;1.00;99.90;;;;;;4999778;28;20470;-86
2021/01/10 17:23:41;;;;;;;76.63;29.00;;;0.90;99.90;;;;;;5035627;22;20472;-86
2021/01/10 17:35:22;;;;;;;67.90;30.90;;;0.90;99.90;;;;;;5233240;22;20496;-85
2021/01/10 17:37:52;;;;;;;74.27;28.77;;;1.00;99.90;;;;;;5045870;22;20493;-86
2021/01/10 17:57:59;;;;;;;56.33;29.90;;;1.10;99.90;;;;;;5052689;22;20498;-86
2021/01/10 18:07:00;;;;;;;57.70;31.47;;;1.20;99.90;;;;;;5255530;22;20521;-86
2021/01/10 18:12:42;;;;;;;53.30;31.87;;;1.10;99.90;;;;;;5000989;28;20443;-85
2021/01/10 18:18:28;;;;;;;56.83;33.43;;;1.10;99.90;;;;;;5024286;23;20486;-85
2021/01/10 18:21:19;;;;;;;67.37;34.07;;;1.20;99.90;;;;;;5019435;28;20434;-86
2021/01/10 18:30:58;;;;;;;72.33;33.20;;;1.20;99.90;;;;;;4998250;28;20423;-84
2021/01/10 18:37:11;;;;;;;60.67;33.93;;;1.00;99.90;;;;;;5220103;22;20545;-85
2021/01/10 18:39:40;;;;;;;62.53;34.50;;;1.00;99.90;;;;;;4977851;28;20463;-85
2021/01/10 18:42:54;;;;;;;63.47;34.73;;;0.90;99.90;;;;;;4979076;29;20475;-85
2021/01/10 18:45:25;;;;;;;66.70;35.23;;;0.90;99.90;;;;;;4979399;29;20934;-85
2021/01/10 18:47:59;;;;;;;68.17;33.60;;;1.10;99.90;;;;;;5014144;22;20489;-85
2021/01/10 18:53:51;;;;;;;59.93;35.30;;;1.00;99.90;;;;;;5016902;28;20464;-84
2021/01/10 18:59:43;;;;;;;57.07;33.03;;;1.10;99.90;;;;;;5086537;23;20477;-86
2021/01/10 19:05:21;;;;;;;75.43;35.30;;;0.90;99.90;;;;;;5041540;23;20429;-85
2021/01/10 19:08:00;;;;;;;78.03;36.03;;;0.90;99.90;;;;;;5146927;22;20470;-85
2021/01/10 19:23:27;;;;;;;63.10;32.50;;;0.60;99.90;;;;;;5014232;28;20454;-84
2021/01/10 19:26:16;;;;;;;70.77;33.93;;;0.60;99.90;;;;;;5125284;22;20496;-85
2021/01/10 19:29:09;;;;;;;57.13;32.13;;;0.80;99.90;;;;;;5015463;28;20498;-85
2021/01/10 19:37:50;;;;;;;68.27;35.07;;;0.50;99.90;;;;;;5187383;22;20483;-84
2021/01/10 19:43:25;;;;;;;97.55;54.45;;;0.40;99.90;;;;;;5310650;22;20450;-84
2021/01/10 19:46:22;;;;;;;69.37;38.13;;;0.60;99.90;;;;;;5034345;22;20280;-85
2021/01/10 19:49:32;;;;;;;57.77;32.40;;;0.70;99.90;;;;;;4998211;28;20440;-85
2021/01/10 19:55:15;;;;;;;63.77;30.67;;;0.70;99.90;;;;;;5037391;23;20494;-85
2021/01/10 19:58:30;;;;;;;58.70;31.57;;;0.60;99.90;;;;;;5043891;22;20473;-85
2021/01/10 20:00:59;;;;;;;68.80;28.93;;;0.60;99.90;;;;;;5178535;22;20522;-85
2021/01/10 20:03:28;;;;;;;65.20;32.80;;;0.50;99.90;;;;;;5015894;28;20466;-85
2021/01/10 20:05:57;;;;;;;59.07;31.67;;;0.40;99.90;;;;;;5015259;28;20445;-85
2021/01/10 20:09:11;;;;;;;52.40;32.13;;;0.60;99.90;;;;;;5009124;23;20490;-84
2021/01/10 20:11:45;;;;;;;58.10;32.97;;;0.80;99.90;;;;;;5015777;28;20478;-85
2021/01/10 20:17:56;;;;;;;52.77;33.23;;;0.90;99.90;;;;;;5033904;22;20516;-85
2021/01/10 20:26:41;;;;;;;54.13;30.20;;;1.20;99.90;;;;;;5015130;28;20446;-85
2021/01/10 20:29:39;;;;;;;46.43;30.00;;;1.20;99.90;;;;;;5013009;28;20449;-85
2021/01/10 20:39:03;;;;;;;53.73;31.67;;;1.20;99.90;;;;;;5047942;23;20481;-85
2021/01/10 20:41:38;;;;;;;51.10;31.40;;;1.20;99.90;;;;;;5018660;28;20528;-85
2021/01/10 20:44:10;;;;;;;54.23;31.67;;;1.30;99.90;;;;;;5026224;22;20454;-84
2021/01/10 20:52:53;;;;;;;60.43;34.70;;;1.30;99.90;;;;;;5040134;22;20529;-85
2021/01/10 20:55:48;;;;;;;58.03;33.40;;;1.30;99.90;;;;;;5026684;23;20457;-85
2021/01/10 20:58:35;;;;;;;61.23;33.57;;;1.40;99.90;;;;;;5019359;28;20458;-85
2021/01/10 21:01:46;;;;;;;56.97;33.03;;;1.50;99.90;;;;;;5030225;22;20441;-85
2021/01/10 21:04:15;;;;;;;62.33;34.07;;;1.50;99.90;;;;;;4982570;28;20482;-84
2021/01/10 21:07:12;;;;;;;59.40;35.30;;;1.40;99.90;;;;;;5019926;23;20470;-85
2021/01/10 21:09:51;;;;;;;51.20;31.57;;;1.50;99.90;;;;;;5025951;22;20559;-84
2021/01/10 21:12:49;;;;;;;56.83;33.03;;;1.50;99.90;;;;;;5018745;28;20454;-86
2021/01/10 21:15:19;;;;;;;52.77;32.73;;;1.50;99.90;;;;;;5018702;28;20456;-85
2021/01/10 21:17:48;;;;;;;52.33;32.17;;;1.50;99.90;;;;;;5019166;28;20489;-85